Time;durP1;ratioP1;P1;durP2;ratioP2;P2;SDS_P1;SDS_P2;PMS_P1;PMS_P2;Temp;Humidity;BMP_temperature;BMP_pressure;BME280_temperature;BME280_humidity;BME280_pressure;Samples;Min_cycle;Max_cycle;Signal;HPM_P1;HPM_P2
2022/01/22 00:01:16;;;;;;;21.30;6.72;;;5.50;99.90;;;;;;5065265;28;20020;-76
2022/01/22 00:03:41;;;;;;;25.05;7.65;;;5.40;99.90;;;;;;5076113;28;20043;-76
2022/01/22 00:06:07;;;;;;;28.85;7.97;;;5.40;99.90;;;;;;5086683;28;20020;-76
2022/01/22 00:08:33;;;;;;;25.05;7.30;;;5.40;99.90;;;;;;5061496;28;20040;-76
2022/01/22 00:10:58;;;;;;;24.25;7.47;;;5.40;99.90;;;;;;5058866;28;20400;-76
2022/01/22 00:16:09;;;;;;;22.73;7.75;;;5.40;99.90;;;;;;5079056;28;20050;-76
2022/01/22 00:18:35;;;;;;;23.27;9.10;;;5.40;99.90;;;;;;5063562;28;20454;-76
2022/01/22 00:21:01;;;;;;;26.00;8.75;;;5.40;99.90;;;;;;5075192;28;20027;-75
2022/01/22 00:23:28;;;;;;;21.20;8.18;;;5.40;99.90;;;;;;5078784;28;20024;-76
2022/01/22 00:25:54;;;;;;;23.65;8.85;;;5.30;99.90;;;;;;5074869;28;20127;-76
2022/01/22 00:28:21;;;;;;;21.30;9.15;;;5.40;99.90;;;;;;5053734;28;20036;-76
2022/01/22 00:30:46;;;;;;;26.35;10.27;;;5.30;99.90;;;;;;5063853;28;20484;-76
2022/01/22 00:33:12;;;;;;;36.38;10.68;;;5.30;99.90;;;;;;5078294;28;20039;-76
2022/01/22 00:35:38;;;;;;;28.40;10.38;;;5.30;99.90;;;;;;5054568;28;20370;-76
2022/01/22 00:38:04;;;;;;;24.48;10.40;;;5.30;99.90;;;;;;5059523;28;20463;-76
2022/01/22 00:40:30;;;;;;;33.92;11.13;;;5.30;99.90;;;;;;5059954;28;20032;-76
2022/01/22 00:42:55;;;;;;;28.48;11.57;;;5.30;99.90;;;;;;5053247;28;20564;-76
2022/01/22 00:45:21;;;;;;;31.00;12.13;;;5.30;99.90;;;;;;5060252;28;20126;-76
2022/01/22 00:47:48;;;;;;;24.85;11.55;;;5.30;99.90;;;;;;5075457;28;20044;-76
2022/01/22 00:50:16;;;;;;;27.92;12.68;;;5.30;99.90;;;;;;5080034;28;20050;-76
2022/01/22 00:52:45;;;;;;;35.10;12.40;;;5.20;99.90;;;;;;5080769;28;20440;-76
2022/01/22 00:55:12;;;;;;;29.48;12.90;;;5.20;99.90;;;;;;5054489;28;20181;-76
2022/01/22 00:57:38;;;;;;;25.95;13.05;;;5.30;99.90;;;;;;5076974;28;20028;-76
2022/01/22 01:00:07;;;;;;;30.55;14.30;;;5.20;99.90;;;;;;5074348;28;20127;-76
2022/01/22 01:02:34;;;;;;;29.05;12.43;;;5.30;99.90;;;;;;5070539;28;20020;-76
2022/01/22 01:04:59;;;;;;;32.65;14.18;;;5.30;99.90;;;;;;5068505;28;20119;-76
2022/01/22 01:07:25;;;;;;;36.20;13.98;;;5.30;99.90;;;;;;5053968;28;20861;-76
2022/01/22 01:09:51;;;;;;;30.88;14.23;;;5.40;99.90;;;;;;5057203;28;20528;-75
2022/01/22 01:12:16;;;;;;;28.27;13.93;;;5.30;99.90;;;;;;5061098;28;20131;-76
2022/01/22 01:14:50;;;;;;;28.95;12.60;;;5.30;99.90;;;;;;5056746;28;20036;-76
2022/01/22 01:32:12;;;;;;;32.58;12.82;;;5.40;99.90;;;;;;5077077;28;20050;-76
2022/01/22 01:33:59;;;;;;;24.40;11.95;;;5.40;99.90;;;;;;5081760;28;20117;-76
2022/01/22 01:36:25;;;;;;;25.00;12.20;;;5.40;99.90;;;;;;5061613;28;20033;-77
2022/01/22 01:38:56;;;;;;;28.60;12.40;;;5.40;99.90;;;;;;5070596;28;20089;-78
2022/01/22 01:41:41;;;;;;;30.10;12.95;;;5.40;99.90;;;;;;5060997;28;20116;-76
2022/01/22 01:44:06;;;;;;;28.95;13.15;;;5.40;99.90;;;;;;5074284;28;20473;-76
2022/01/22 01:46:33;;;;;;;23.83;12.70;;;5.40;99.90;;;;;;5065986;28;20038;-77
2022/01/22 01:48:59;;;;;;;23.63;13.05;;;5.40;99.90;;;;;;5074379;28;20432;-76
2022/01/22 01:51:29;;;;;;;25.67;13.18;;;5.40;99.90;;;;;;5058004;28;20453;-77
2022/01/22 01:59:07;;;;;;;29.55;14.40;;;5.40;99.90;;;;;;5075399;28;20121;-76
2022/01/22 02:01:33;;;;;;;31.75;14.52;;;5.40;99.90;;;;;;5054094;28;20037;-76
2022/01/22 02:03:59;;;;;;;31.95;14.70;;;5.40;99.90;;;;;;5057482;28;20391;-76
2022/01/22 02:06:24;;;;;;;30.70;15.52;;;5.30;99.90;;;;;;5074015;28;20997;-76
2022/01/22 02:08:52;;;;;;;31.52;15.93;;;5.40;99.90;;;;;;5079658;28;20043;-76
2022/01/22 02:11:20;;;;;;;33.40;14.93;;;5.30;99.90;;;;;;5073765;28;20029;-76
2022/01/22 02:14:01;;;;;;;35.97;16.43;;;5.30;99.90;;;;;;5053520;28;20105;-76
2022/01/22 02:24:51;;;;;;;34.10;16.98;;;5.30;99.90;;;;;;5082872;28;20603;-76
2022/01/22 02:27:17;;;;;;;34.10;16.45;;;5.40;99.90;;;;;;5059802;28;20398;-77
2022/01/22 02:29:43;;;;;;;33.38;17.95;;;5.30;99.90;;;;;;5083752;28;20032;-77
2022/01/22 02:34:48;;;;;;;;;;;5.30;99.90;;;;;;5077593;28;20024;-76
2022/01/22 02:37:17;;;;;;;36.88;18.15;;;5.30;99.90;;;;;;5073774;28;20357;-76
2022/01/22 02:39:59;;;;;;;35.33;18.92;;;5.20;99.90;;;;;;5080754;28;20025;-76
2022/01/22 02:42:30;;;;;;;36.65;19.13;;;5.30;99.90;;;;;;5055904;28;20040;-76
2022/01/22 02:44:55;;;;;;;38.08;20.08;;;5.20;99.90;;;;;;5066990;28;20036;-76
2022/01/22 02:47:22;;;;;;;43.85;19.48;;;5.30;99.90;;;;;;5063676;28;20419;-76
2022/01/22 02:49:47;;;;;;;34.10;18.40;;;5.20;99.90;;;;;;5058057;28;20043;-76
2022/01/22 02:52:13;;;;;;;38.88;20.55;;;5.20;99.90;;;;;;5068460;28;20390;-76
2022/01/22 02:54:39;;;;;;;41.95;20.80;;;5.20;99.90;;;;;;5057797;28;20078;-76
2022/01/22 02:57:08;;;;;;;41.00;22.05;;;5.20;99.90;;;;;;5074356;28;20028;-76
2022/01/22 02:59:33;;;;;;;48.67;22.30;;;5.20;99.90;;;;;;5064824;28;20131;-76
2022/01/22 03:02:01;;;;;;;38.10;22.75;;;5.20;99.90;;;;;;5062499;28;20548;-76
2022/01/22 03:04:26;;;;;;;40.67;22.55;;;5.20;99.90;;;;;;5081895;28;20618;-76
2022/01/22 03:06:52;;;;;;;40.97;21.58;;;5.20;99.90;;;;;;5058311;28;20040;-76
2022/01/22 03:09:25;;;;;;;43.17;23.88;;;5.20;99.90;;;;;;5078766;28;20464;-76
2022/01/22 03:27:46;;;;;;;41.22;24.85;;;5.20;99.90;;;;;;5069631;28;20440;-77
2022/01/22 03:30:12;;;;;;;43.38;25.85;;;5.20;99.90;;;;;;5060462;28;20021;-76
2022/01/22 03:32:42;;;;;;;41.38;25.95;;;5.20;99.90;;;;;;5063878;28;20116;-76
2022/01/22 03:35:24;;;;;;;48.85;27.30;;;5.10;99.90;;;;;;5055516;28;20044;-76
2022/01/22 03:37:52;;;;;;;49.72;28.45;;;5.20;99.90;;;;;;5056681;28;20063;-76
2022/01/22 03:40:25;;;;;;;43.87;25.53;;;5.20;99.90;;;;;;5081454;28;20055;-76
2022/01/22 03:42:52;;;;;;;46.67;27.00;;;5.20;99.90;;;;;;5070851;28;20742;-77
2022/01/22 03:45:20;;;;;;;48.05;26.27;;;5.20;99.90;;;;;;5079404;28;20028;-76
2022/01/22 03:47:46;;;;;;;46.45;29.77;;;5.20;99.90;;;;;;5059256;28;20563;-75
2022/01/22 03:50:14;;;;;;;42.40;27.55;;;5.20;99.90;;;;;;5060016;28;20513;-75
2022/01/22 03:52:39;;;;;;;51.40;27.85;;;5.20;99.90;;;;;;5069502;28;20111;-76
2022/01/22 03:55:09;;;;;;;51.53;30.40;;;5.20;99.90;;;;;;5057041;28;20123;-76
2022/01/22 03:57:35;;;;;;;56.25;31.90;;;5.20;99.90;;;;;;5059455;28;20047;-76
2022/01/22 04:00:01;;;;;;;52.92;30.48;;;5.20;99.90;;;;;;5085848;28;20032;-76
2022/01/22 04:05:01;;;;;;;52.28;29.45;;;5.30;99.90;;;;;;5074745;28;20153;-76
2022/01/22 04:09:59;;;;;;;57.15;32.85;;;5.30;99.90;;;;;;5076301;28;20032;-76
2022/01/22 04:12:41;;;;;;;;;;;5.30;99.90;;;;;;5075671;28;20036;-76
2022/01/22 04:15:09;;;;;;;55.90;33.03;;;5.30;99.90;;;;;;5073962;28;19919;-76
2022/01/22 04:25:34;;;;;;;65.00;34.08;;;5.30;99.90;;;;;;5076384;28;20621;-76
2022/01/22 04:27:59;;;;;;;59.60;31.58;;;5.20;99.90;;;;;;5063921;28;20417;-76
2022/01/22 04:30:28;;;;;;;49.70;31.20;;;5.30;99.90;;;;;;5063652;28;20024;-76
2022/01/22 04:32:53;;;;;;;55.45;32.55;;;5.20;99.90;;;;;;5057173;28;20032;-76
2022/01/22 04:35:22;;;;;;;51.65;32.97;;;5.20;99.90;;;;;;5076007;28;20125;-76
2022/01/22 04:37:49;;;;;;;65.83;35.30;;;5.20;99.90;;;;;;5063864;28;20047;-77
2022/01/22 04:40:15;;;;;;;62.15;35.90;;;5.20;99.90;;;;;;5060947;28;20036;-76
2022/01/22 04:42:42;;;;;;;57.03;35.33;;;5.20;99.90;;;;;;5059391;28;20115;-76
2022/01/22 04:45:45;;;;;;;53.28;31.92;;;5.10;99.90;;;;;;5078174;28;20027;-76
2022/01/22 04:55:46;;;;;;;64.22;37.53;;;5.10;99.90;;;;;;5079009;28;20028;-76
2022/01/22 04:58:13;;;;;;;65.63;38.15;;;5.10;99.90;;;;;;5084715;28;20036;-76
2022/01/22 05:00:41;;;;;;;67.70;38.13;;;5.10;99.90;;;;;;5069651;28;20394;-75
2022/01/22 05:03:07;;;;;;;73.68;39.08;;;5.20;99.90;;;;;;5073383;28;20066;-76
2022/01/22 05:05:33;;;;;;;69.82;39.45;;;5.20;99.90;;;;;;5060085;28;20040;-76
2022/01/22 05:07:59;;;;;;;76.90;40.38;;;5.20;99.90;;;;;;5073412;28;20040;-76
2022/01/22 05:10:25;;;;;;;61.78;36.88;;;5.20;99.90;;;;;;5052350;28;20044;-76
2022/01/22 05:12:53;;;;;;;74.95;41.65;;;5.20;99.90;;;;;;5069163;28;20033;-76
2022/01/22 05:15:20;;;;;;;69.78;40.60;;;5.20;99.90;;;;;;5062325;28;20024;-76
2022/01/22 05:17:46;;;;;;;84.22;41.67;;;5.20;99.90;;;;;;5063985;28;20122;-76
2022/01/22 05:25:25;;;;;;;88.07;44.55;;;5.30;99.90;;;;;;5078261;28;20071;-76
2022/01/22 05:33:16;;;;;;;85.00;44.80;;;5.40;99.90;;;;;;5078829;28;20032;-76
2022/01/22 05:38:34;;;;;;;75.40;43.53;;;5.40;99.90;;;;;;5085258;28;20093;-76
2022/01/22 05:41:00;;;;;;;73.88;43.47;;;5.40;99.90;;;;;;5073099;28;20024;-76
2022/01/22 05:43:26;;;;;;;85.78;43.38;;;5.40;99.90;;;;;;5082729;28;20418;-76
2022/01/22 05:45:52;;;;;;;79.88;45.53;;;5.40;99.90;;;;;;5080136;28;20041;-76
2022/01/22 05:48:18;;;;;;;87.75;47.60;;;5.40;99.90;;;;;;5084648;28;20054;-76
2022/01/22 05:50:51;;;;;;;90.53;49.22;;;5.40;99.90;;;;;;5066037;28;20028;-76
2022/01/22 06:01:13;;;;;;;;;;;5.50;99.90;;;;;;5076007;28;20082;-75
2022/01/22 06:03:39;;;;;;;103.78;51.20;;;5.50;99.90;;;;;;5064119;28;19935;-76
2022/01/22 06:06:04;;;;;;;85.93;49.08;;;5.50;99.90;;;;;;5079955;28;20427;-75
2022/01/22 06:08:33;;;;;;;101.97;49.95;;;5.40;99.90;;;;;;5079247;28;20028;-75
2022/01/22 06:11:07;;;;;;;98.40;50.90;;;5.50;99.90;;;;;;5081570;28;21729;-75
2022/01/22 06:13:43;;;;;;;107.30;51.03;;;5.50;99.90;;;;;;5063517;28;20296;-75
2022/01/22 06:16:14;;;;;;;102.32;53.05;;;5.50;99.90;;;;;;5062776;28;20477;-75
2022/01/22 06:18:39;;;;;;;103.13;53.95;;;5.50;99.90;;;;;;5075854;28;20037;-76
2022/01/22 06:21:06;;;;;;;90.95;51.72;;;5.50;99.90;;;;;;5055823;28;20132;-75
2022/01/22 06:23:32;;;;;;;100.05;53.28;;;5.50;99.90;;;;;;5078648;28;20039;-75
2022/01/22 06:26:00;;;;;;;99.50;52.63;;;5.50;99.90;;;;;;5052299;28;20223;-76
2022/01/22 06:28:30;;;;;;;97.47;51.78;;;5.50;99.90;;;;;;5081813;28;20339;-76
2022/01/22 06:30:57;;;;;;;118.93;53.78;;;5.50;99.90;;;;;;5074659;28;20071;-75
2022/01/22 06:33:23;;;;;;;117.75;55.15;;;5.50;99.90;;;;;;5073633;28;20036;-76
2022/01/22 06:35:49;;;;;;;95.95;52.50;;;5.50;99.90;;;;;;5087536;28;20024;-76
2022/01/22 06:38:15;;;;;;;98.53;52.10;;;5.60;99.90;;;;;;5069294;28;20032;-76
2022/01/22 06:43:06;;;;;;;107.70;52.35;;;5.60;99.90;;;;;;5078070;28;20115;-76
2022/01/22 06:45:32;;;;;;;116.63;54.08;;;5.60;99.90;;;;;;5053272;28;20043;-76
2022/01/22 06:47:59;;;;;;;92.07;48.33;;;5.70;99.90;;;;;;5053726;28;20045;-75
2022/01/22 06:50:24;;;;;;;91.43;48.90;;;5.70;99.90;;;;;;5071470;28;20078;-76
2022/01/22 06:52:55;;;;;;;104.45;52.47;;;5.70;99.90;;;;;;5070054;28;20029;-76
2022/01/22 06:55:37;;;;;;;85.28;46.20;;;5.70;99.90;;;;;;5065395;28;20024;-76
2022/01/22 06:58:03;;;;;;;77.35;42.83;;;5.70;99.90;;;;;;5069938;28;20039;-76
2022/01/22 07:00:28;;;;;;;94.30;48.80;;;5.70;99.90;;;;;;5058443;28;20440;-75
2022/01/22 07:02:54;;;;;;;95.18;46.60;;;5.80;99.90;;;;;;5070281;28;20473;-75
2022/01/22 07:05:20;;;;;;;85.00;46.40;;;5.80;99.90;;;;;;5065095;28;20040;-76
2022/01/22 07:07:46;;;;;;;98.47;49.17;;;5.80;99.90;;;;;;5091279;28;20036;-76
2022/01/22 07:10:11;;;;;;;86.38;48.83;;;5.80;99.90;;;;;;5057875;28;20131;-75
2022/01/22 07:12:37;;;;;;;98.55;48.05;;;5.80;99.90;;;;;;5075896;28;20028;-76
2022/01/22 07:15:03;;;;;;;91.22;47.85;;;5.90;99.90;;;;;;5061212;28;20397;-76
2022/01/22 07:17:34;;;;;;;88.28;47.33;;;5.80;99.90;;;;;;5053096;28;20055;-75
2022/01/22 07:20:00;;;;;;;100.30;47.00;;;5.80;99.90;;;;;;5059207;28;20040;-75
2022/01/22 07:22:35;;;;;;;80.82;45.92;;;5.90;99.90;;;;;;5053409;28;20415;-76
2022/01/22 07:25:01;;;;;;;87.53;46.03;;;5.90;99.90;;;;;;5082948;28;20032;-77
2022/01/22 07:27:26;;;;;;;99.38;49.45;;;5.90;99.90;;;;;;5076932;28;20063;-76
2022/01/22 07:29:52;;;;;;;121.72;51.33;;;5.80;99.90;;;;;;5064985;28;20036;-75
2022/01/22 07:32:28;;;;;;;108.72;51.67;;;5.90;99.90;;;;;;5061269;28;20468;-76
2022/01/22 07:34:54;;;;;;;87.90;49.10;;;5.90;99.90;;;;;;5056166;28;20033;-75
2022/01/22 07:37:19;;;;;;;90.75;48.55;;;5.80;99.90;;;;;;5061211;28;20115;-75
2022/01/22 07:39:45;;;;;;;114.35;51.25;;;5.80;99.90;;;;;;5059801;28;20047;-76
2022/01/22 07:42:11;;;;;;;108.22;50.47;;;5.80;99.90;;;;;;5056281;28;20616;-75
2022/01/22 07:44:36;;;;;;;105.53;51.00;;;5.80;99.90;;;;;;5059178;28;20122;-76
2022/01/22 07:47:02;;;;;;;100.65;50.08;;;5.90;99.90;;;;;;5057861;28;20025;-77
2022/01/22 07:49:29;;;;;;;111.30;53.58;;;5.80;99.90;;;;;;5056738;28;20033;-75
2022/01/22 07:51:54;;;;;;;110.85;52.10;;;5.90;99.90;;;;;;5063306;28;20047;-75
2022/01/22 07:54:21;;;;;;;111.68;51.80;;;5.90;99.90;;;;;;5081158;28;20028;-76
2022/01/22 07:56:47;;;;;;;91.95;48.60;;;5.90;99.90;;;;;;5059433;28;20029;-76
2022/01/22 07:59:13;;;;;;;107.72;48.70;;;5.90;99.90;;;;;;5071486;28;20499;-75
2022/01/22 08:01:39;;;;;;;111.32;49.22;;;5.90;99.90;;;;;;5064830;28;20955;-77
2022/01/22 08:04:04;;;;;;;100.32;48.08;;;5.90;99.90;;;;;;5062428;28;20051;-76
2022/01/22 08:06:30;;;;;;;91.55;47.08;;;5.90;99.90;;;;;;5041198;28;20051;-76
2022/01/22 08:08:56;;;;;;;98.25;48.53;;;6.00;99.90;;;;;;5072034;28;20073;-76
2022/01/22 08:11:21;;;;;;;96.25;48.42;;;6.00;99.90;;;;;;5070933;28;20032;-77
2022/01/22 08:13:47;;;;;;;106.82;48.00;;;6.00;99.90;;;;;;5071732;28;20036;-77
2022/01/22 08:16:12;;;;;;;106.10;48.55;;;6.00;99.90;;;;;;5068676;28;20029;-80
2022/01/22 08:18:38;;;;;;;109.85;52.28;;;6.00;99.90;;;;;;5060339;28;20028;-81
2022/01/22 08:21:04;;;;;;;112.20;52.45;;;6.00;99.90;;;;;;5058807;28;20467;-81
2022/01/22 08:23:32;;;;;;;93.30;46.75;;;6.00;99.90;;;;;;5075774;28;20508;-81
2022/01/22 08:25:58;;;;;;;102.57;48.83;;;6.00;99.90;;;;;;5053402;28;20051;-81
2022/01/22 08:31:25;;;;;;;105.57;48.20;;;6.00;99.90;;;;;;5074711;28;20082;-81
2022/01/22 08:36:35;;;;;;;91.70;46.65;;;6.10;99.90;;;;;;5078423;28;20039;-81
2022/01/22 08:39:02;;;;;;;112.28;50.90;;;6.10;99.90;;;;;;5086660;28;20028;-81
2022/01/22 08:41:28;;;;;;;132.82;51.67;;;6.20;99.90;;;;;;5062485;28;20031;-81
2022/01/22 08:43:57;;;;;;;117.97;48.47;;;6.10;99.90;;;;;;5075999;28;20029;-81
2022/01/22 08:46:24;;;;;;;108.70;48.38;;;6.10;99.90;;;;;;5060033;28;20115;-81
2022/01/22 08:48:50;;;;;;;93.60;45.03;;;6.10;99.90;;;;;;5081147;28;20035;-81
2022/01/22 08:51:15;;;;;;;93.57;46.13;;;6.20;99.90;;;;;;5078887;28;20029;-81
2022/01/22 08:53:41;;;;;;;110.75;46.67;;;6.20;99.90;;;;;;5080453;28;20036;-81
2022/01/22 08:56:08;;;;;;;94.60;45.55;;;6.30;99.90;;;;;;5052257;28;20514;-81
2022/01/22 08:58:34;;;;;;;90.20;44.45;;;6.30;99.90;;;;;;5057709;28;20374;-81
2022/01/22 09:01:00;;;;;;;96.97;44.58;;;6.30;99.90;;;;;;5065507;28;20035;-80
2022/01/22 09:03:26;;;;;;;89.57;44.85;;;6.30;99.90;;;;;;5075740;28;20041;-80
2022/01/22 09:05:52;;;;;;;104.28;46.97;;;6.30;99.90;;;;;;5051090;28;20033;-80
2022/01/22 09:08:36;;;;;;;102.57;45.55;;;6.40;99.90;;;;;;5066641;28;20028;-80
2022/01/22 09:11:02;;;;;;;102.85;45.28;;;6.40;99.90;;;;;;5069650;28;20025;-80
2022/01/22 09:13:29;;;;;;;97.85;46.53;;;6.40;99.90;;;;;;5078818;28;20033;-80
2022/01/22 09:15:55;;;;;;;86.22;41.25;;;6.40;99.90;;;;;;5080014;28;20062;-81
2022/01/22 09:18:21;;;;;;;109.13;46.92;;;6.40;99.90;;;;;;5061511;28;20028;-81
2022/01/22 09:23:17;;;;;;;91.57;43.40;;;6.40;99.90;;;;;;5073808;28;20165;-81
2022/01/22 09:25:43;;;;;;;75.90;40.10;;;6.40;99.90;;;;;;5074748;28;20454;-81
2022/01/22 09:28:13;;;;;;;82.65;40.53;;;6.40;99.90;;;;;;5074136;28;20040;-81
2022/01/22 09:30:41;;;;;;;75.75;39.33;;;6.40;99.90;;;;;;5063788;28;20033;-80
2022/01/22 09:33:07;;;;;;;87.57;41.38;;;6.40;99.90;;;;;;5070525;28;20040;-81
2022/01/22 09:35:33;;;;;;;78.10;39.80;;;6.50;99.90;;;;;;5062129;28;20056;-81
2022/01/22 09:37:59;;;;;;;82.25;39.03;;;6.50;99.90;;;;;;5057738;28;20031;-81
2022/01/22 09:40:26;;;;;;;85.82;42.95;;;6.50;99.90;;;;;;5078733;28;20485;-81
2022/01/22 09:42:52;;;;;;;74.60;39.45;;;6.50;99.90;;;;;;5064848;28;20043;-81
2022/01/22 09:45:18;;;;;;;81.28;40.13;;;6.60;99.90;;;;;;5055962;28;20032;-81
2022/01/22 09:47:46;;;;;;;83.43;41.03;;;6.60;99.90;;;;;;5051093;28;21140;-81
2022/01/22 09:50:12;;;;;;;85.13;40.58;;;6.70;99.90;;;;;;5080995;28;20032;-81
2022/01/22 09:52:39;;;;;;;79.30;38.90;;;6.70;99.90;;;;;;5076670;28;20066;-81
2022/01/22 09:55:06;;;;;;;81.07;39.85;;;6.70;99.90;;;;;;5070613;28;20489;-81
2022/01/22 09:57:35;;;;;;;70.32;36.47;;;6.70;99.90;;;;;;5079228;28;20024;-81
2022/01/22 10:00:02;;;;;;;73.60;37.40;;;6.70;99.90;;;;;;5080580;28;20024;-81
2022/01/22 10:02:27;;;;;;;69.07;36.85;;;6.70;99.90;;;;;;5088832;28;20040;-81
2022/01/22 10:04:53;;;;;;;65.38;37.05;;;6.70;99.90;;;;;;5067055;28;20047;-81
2022/01/22 10:07:22;;;;;;;77.05;37.78;;;6.80;99.90;;;;;;5076903;28;20028;-81
2022/01/22 10:09:55;;;;;;;62.53;36.90;;;6.80;99.90;;;;;;5076429;28;20032;-81
2022/01/22 10:12:22;;;;;;;64.03;33.65;;;6.80;99.90;;;;;;5068374;28;20552;-81
2022/01/22 10:15:13;;;;;;;67.00;37.05;;;6.80;99.90;;;;;;5074774;28;20032;-81
2022/01/22 10:17:39;;;;;;;71.07;36.47;;;6.80;99.90;;;;;;5077965;28;20119;-81
2022/01/22 10:20:32;;;;;;;62.67;34.60;;;6.80;99.90;;;;;;5074183;28;20029;-81
2022/01/22 10:22:59;;;;;;;67.30;35.35;;;6.90;99.90;;;;;;5070215;28;20036;-81
2022/01/22 10:25:55;;;;;;;59.35;32.33;;;7.00;99.90;;;;;;5075610;28;20032;-79
2022/01/22 10:28:23;;;;;;;58.97;34.53;;;7.00;99.90;;;;;;5073985;28;20040;-79
2022/01/22 10:31:08;;;;;;;55.85;33.33;;;7.00;99.90;;;;;;5063976;28;20555;-79
2022/01/22 10:33:35;;;;;;;57.50;32.97;;;7.10;99.90;;;;;;5069877;28;20386;-79
2022/01/22 10:36:20;;;;;;;51.58;30.15;;;7.10;99.90;;;;;;5055810;28;20501;-79
2022/01/22 10:38:45;;;;;;;52.55;30.23;;;7.10;99.90;;;;;;5077432;28;20448;-79
2022/01/22 10:41:13;;;;;;;50.03;29.23;;;7.10;99.90;;;;;;5072633;28;20052;-79
2022/01/22 10:43:43;;;;;;;47.78;29.15;;;7.10;99.90;;;;;;5062363;28;20119;-79
2022/01/22 10:49:25;;;;;;;53.70;30.60;;;7.20;99.90;;;;;;5072312;28;20197;-79
2022/01/22 10:51:53;;;;;;;49.35;29.58;;;7.30;99.90;;;;;;5060128;28;20071;-79
2022/01/22 10:54:27;;;;;;;57.92;32.47;;;7.20;99.90;;;;;;5076143;28;20028;-79
2022/01/22 10:56:54;;;;;;;53.90;31.90;;;7.30;99.90;;;;;;5071437;28;20033;-79
2022/01/22 10:59:21;;;;;;;55.55;30.55;;;7.30;99.90;;;;;;5082600;28;20062;-79
2022/01/22 11:01:59;;;;;;;49.58;30.67;;;7.30;99.90;;;;;;5074385;28;20055;-79
2022/01/22 11:04:27;;;;;;;49.17;29.90;;;7.30;99.90;;;;;;5097044;28;20016;-79
2022/01/22 11:06:58;;;;;;;52.33;30.83;;;7.30;99.90;;;;;;5078500;28;20028;-79
2022/01/22 11:09:26;;;;;;;58.85;31.75;;;7.30;99.90;;;;;;5058179;28;20130;-79
2022/01/22 11:11:53;;;;;;;48.90;30.80;;;7.40;99.90;;;;;;5074897;28;20472;-79
2022/01/22 11:14:19;;;;;;;54.83;29.90;;;7.30;99.90;;;;;;5079370;28;20029;-79
2022/01/22 11:16:47;;;;;;;47.55;28.65;;;7.40;99.90;;;;;;5080467;28;20097;-79
2022/01/22 11:19:18;;;;;;;49.65;26.77;;;7.40;99.90;;;;;;5085068;28;21836;-79
2022/01/22 11:21:48;;;;;;;40.50;25.88;;;7.40;99.90;;;;;;5088308;28;20506;-78
2022/01/22 11:24:15;;;;;;;;;;;7.40;99.90;;;;;;5073810;28;20023;-79
2022/01/22 11:26:45;;;;;;;46.22;24.88;;;7.40;99.90;;;;;;5076337;28;19913;-79
2022/01/22 11:29:13;;;;;;;42.95;25.48;;;7.40;99.90;;;;;;5078587;28;20499;-79
2022/01/22 11:31:40;;;;;;;42.78;24.35;;;7.40;99.90;;;;;;5079177;28;20025;-78
2022/01/22 11:34:06;;;;;;;46.45;25.58;;;7.40;99.90;;;;;;5057775;28;20025;-82
2022/01/22 11:36:47;;;;;;;42.63;25.48;;;7.40;99.90;;;;;;5052456;28;20081;-82
2022/01/22 11:39:20;;;;;;;40.75;25.33;;;7.40;99.90;;;;;;5072242;28;20039;-82
2022/01/22 11:41:54;;;;;;;42.50;25.10;;;7.40;99.90;;;;;;5069992;28;20641;-82
2022/01/22 11:45:01;;;;;;;44.15;26.40;;;7.40;99.90;;;;;;5070354;28;20028;-82
2022/01/22 11:47:27;;;;;;;45.63;25.55;;;7.40;99.90;;;;;;5068867;28;20060;-82
2022/01/22 11:50:13;;;;;;;44.05;25.77;;;7.40;99.90;;;;;;5068737;28;20063;-82
2022/01/22 11:52:41;;;;;;;45.28;25.80;;;7.40;99.90;;;;;;5068689;28;20074;-82
2022/01/22 11:55:11;;;;;;;41.00;25.42;;;7.40;99.90;;;;;;5068596;28;20043;-82
2022/01/22 11:57:37;;;;;;;48.92;26.13;;;7.40;99.90;;;;;;5070789;28;20477;-82
2022/01/22 12:00:18;;;;;;;37.72;24.02;;;7.40;99.90;;;;;;5072294;28;20059;-82
2022/01/22 12:02:44;;;;;;;45.13;25.95;;;7.40;99.90;;;;;;5088904;28;20107;-82
2022/01/22 12:05:10;;;;;;;45.03;25.88;;;7.40;99.90;;;;;;5071830;28;20131;-82
2022/01/22 12:07:36;;;;;;;44.58;26.20;;;7.40;99.90;;;;;;5088924;28;20039;-82
2022/01/22 12:10:34;;;;;;;46.65;25.90;;;7.40;99.90;;;;;;5067218;28;20033;-82
2022/01/22 12:16:08;;;;;;;38.67;24.13;;;7.30;99.90;;;;;;5065906;28;20038;-82
2022/01/22 12:18:38;;;;;;;45.05;26.98;;;7.40;99.90;;;;;;5070735;28;20485;-82
2022/01/22 12:23:32;;;;;;;50.70;27.70;;;7.40;99.90;;;;;;5068340;28;20038;-82
2022/01/22 12:26:01;;;;;;;47.22;27.80;;;7.40;99.90;;;;;;5067841;28;20358;-82
2022/01/22 12:28:44;;;;;;;48.55;28.88;;;7.40;99.90;;;;;;5068214;28;20052;-82
2022/01/22 12:31:16;;;;;;;47.42;28.95;;;7.40;99.90;;;;;;5068112;28;20599;-82
2022/01/22 12:33:45;;;;;;;54.70;29.45;;;7.40;99.90;;;;;;5068050;28;20075;-82
2022/01/22 12:36:20;;;;;;;51.43;32.00;;;7.40;99.90;;;;;;5067683;28;20476;-82
2022/01/22 12:39:09;;;;;;;51.80;30.92;;;7.40;99.90;;;;;;5074346;28;20036;-82
2022/01/22 12:41:57;;;;;;;51.00;29.67;;;7.40;99.90;;;;;;5088400;28;20028;-82
2022/01/22 12:44:29;;;;;;;53.28;30.40;;;7.30;99.90;;;;;;5089036;28;20028;-82
2022/01/22 12:46:58;;;;;;;51.90;30.75;;;7.30;99.90;;;;;;5087864;28;20036;-82
2022/01/22 12:49:25;;;;;;;52.97;32.50;;;7.40;99.90;;;;;;5086520;28;20035;-82
2022/01/22 12:52:05;;;;;;;58.88;33.42;;;7.40;99.90;;;;;;5060574;28;20119;-82
2022/01/22 12:54:36;;;;;;;58.63;33.25;;;7.40;99.90;;;;;;5068111;28;20036;-82
2022/01/22 12:57:06;;;;;;;58.05;32.70;;;7.40;99.90;;;;;;5068912;28;20028;-82
2022/01/22 12:59:34;;;;;;;59.05;34.15;;;7.40;99.90;;;;;;5067808;28;20032;-82
2022/01/22 13:02:00;;;;;;;64.03;34.75;;;7.30;99.90;;;;;;5067741;28;20028;-82
2022/01/22 13:04:26;;;;;;;49.47;32.63;;;7.40;99.90;;;;;;5051154;28;20032;-82
2022/01/22 13:06:53;;;;;;;55.33;33.88;;;7.40;99.90;;;;;;5067837;28;20029;-82
2022/01/22 13:09:19;;;;;;;51.53;32.92;;;7.30;99.90;;;;;;5067538;28;20024;-82
2022/01/22 13:11:49;;;;;;;56.15;34.90;;;7.40;99.90;;;;;;5067657;28;20043;-82
2022/01/22 13:14:35;;;;;;;57.13;35.30;;;7.30;99.90;;;;;;5068665;28;20024;-82
2022/01/22 13:17:02;;;;;;;61.10;35.25;;;7.30;99.90;;;;;;5067137;28;20464;-81
2022/01/22 13:19:29;;;;;;;61.95;35.60;;;7.30;99.90;;;;;;5067510;28;20017;-82
2022/01/22 13:22:01;;;;;;;56.83;37.03;;;7.30;99.90;;;;;;5051053;28;20090;-82
2022/01/22 13:24:28;;;;;;;55.03;35.53;;;7.30;99.90;;;;;;5067514;28;20033;-82
2022/01/22 13:27:15;;;;;;;63.92;36.78;;;7.30;99.90;;;;;;5067620;28;20053;-82
2022/01/22 13:29:44;;;;;;;65.07;38.50;;;7.30;99.90;;;;;;5067234;28;20028;-82
2022/01/22 13:32:41;;;;;;;57.88;36.92;;;7.20;99.90;;;;;;5066821;28;20131;-82
2022/01/22 13:49:34;;;;;;;67.30;37.40;;;7.20;99.90;;;;;;5072663;28;20047;-82
2022/01/22 13:52:03;;;;;;;60.80;36.20;;;7.20;99.90;;;;;;5072573;28;20084;-82
2022/01/22 13:54:35;;;;;;;57.72;37.33;;;7.20;99.90;;;;;;5071087;28;20663;-82
2022/01/22 13:57:10;;;;;;;65.30;38.22;;;7.20;99.90;;;;;;5067416;28;20024;-82
2022/01/22 13:59:39;;;;;;;57.40;35.50;;;7.20;99.90;;;;;;5072322;28;20043;-82
2022/01/22 14:05:07;;;;;;;58.15;36.72;;;7.20;99.90;;;;;;5050684;28;20489;-82
2022/01/22 14:07:45;;;;;;;63.47;37.78;;;7.20;99.90;;;;;;5070649;28;20032;-82
2022/01/22 14:10:16;;;;;;;62.60;36.17;;;7.20;99.90;;;;;;5071600;28;20145;-82
2022/01/22 14:12:48;;;;;;;64.80;37.33;;;7.20;99.90;;;;;;5072082;28;20499;-82
2022/01/22 14:15:41;;;;;;;67.63;39.28;;;7.20;99.90;;;;;;5072027;28;20145;-82
2022/01/22 14:20:47;;;;;;;72.10;37.45;;;7.10;99.90;;;;;;5072274;28;20028;-83
2022/01/22 14:23:15;;;;;;;70.15;38.03;;;7.20;99.90;;;;;;5070523;28;20028;-82
2022/01/22 14:25:58;;;;;;;63.25;37.15;;;7.20;99.90;;;;;;5070600;28;20477;-82
2022/01/22 14:28:41;;;;;;;67.05;38.65;;;7.20;99.90;;;;;;5070581;28;20378;-82
2022/01/22 14:31:27;;;;;;;61.35;38.00;;;7.20;99.90;;;;;;5071772;28;20528;-82
2022/01/22 14:33:55;;;;;;;58.83;36.45;;;7.10;99.90;;;;;;5071758;28;20086;-82
2022/01/22 14:36:27;;;;;;;59.60;37.20;;;7.10;99.90;;;;;;5070125;28;20032;-83
2022/01/22 14:44:42;;;;;;;61.42;37.88;;;7.10;99.90;;;;;;5071034;28;20052;-83
2022/01/22 14:47:19;;;;;;;73.70;41.35;;;7.20;99.90;;;;;;5069729;28;20525;-82
2022/01/22 14:49:47;;;;;;;70.95;40.67;;;7.10;99.90;;;;;;5069942;28;20033;-82
2022/01/22 14:52:16;;;;;;;67.18;40.38;;;7.10;99.90;;;;;;5070130;28;20033;-82
2022/01/22 14:54:44;;;;;;;57.80;36.47;;;7.10;99.90;;;;;;5087036;28;20394;-82
2022/01/22 14:57:12;;;;;;;64.20;38.17;;;7.10;99.90;;;;;;5071597;28;20020;-82
2022/01/22 14:59:39;;;;;;;58.58;38.47;;;7.10;99.90;;;;;;5069155;28;20032;-82
2022/01/22 15:02:06;;;;;;;74.38;39.60;;;7.10;99.90;;;;;;5053151;28;20546;-82
2022/01/22 15:04:33;;;;;;;70.45;38.47;;;7.00;99.90;;;;;;5069740;28;20393;-83